sensor_id;sensor_type;location;lat;lon;timestamp;temperature;humidity
45115;DHT22;30877;43.706;10.780;2023-06-22T00:01:35;26.30;96.70
45115;DHT22;30877;43.706;10.780;2023-06-22T00:04:03;26.20;96.70
45115;DHT22;30877;43.706;10.780;2023-06-22T00:06:32;26.10;96.70
45115;DHT22;30877;43.706;10.780;2023-06-22T00:09:00;26.10;96.70
45115;DHT22;30877;43.706;10.780;2023-06-22T00:11:29;26.10;96.70
45115;DHT22;30877;43.706;10.780;2023-06-22T00:14:14;26.10;96.70
45115;DHT22;30877;43.706;10.780;2023-06-22T00:16:42;26.00;96.70
45115;DHT22;30877;43.706;10.780;2023-06-22T00:19:10;26.00;96.70
45115;DHT22;30877;43.706;10.780;2023-06-22T00:21:39;26.00;96.70
45115;DHT22;30877;43.706;10.780;2023-06-22T00:24:07;26.10;96.70
45115;DHT22;30877;43.706;10.780;2023-06-22T00:26:37;26.10;96.70
45115;DHT22;30877;43.706;10.780;2023-06-22T00:29:32;26.00;96.70
45115;DHT22;30877;43.706;10.780;2023-06-22T00:32:39;26.00;96.70
45115;DHT22;30877;43.706;10.780;2023-06-22T00:35:28;25.90;96.70
45115;DHT22;30877;43.706;10.780;2023-06-22T00:37:59;25.90;96.70
45115;DHT22;30877;43.706;10.780;2023-06-22T00:40:32;25.90;96.70
45115;DHT22;30877;43.706;10.780;2023-06-22T00:43:02;25.90;96.70
45115;DHT22;30877;43.706;10.780;2023-06-22T00:45:31;25.80;96.70
45115;DHT22;30877;43.706;10.780;2023-06-22T00:47:59;25.80;96.70
45115;DHT22;30877;43.706;10.780;2023-06-22T00:50:29;25.70;96.70
45115;DHT22;30877;43.706;10.780;2023-06-22T00:53:05;25.70;96.70
45115;DHT22;30877;43.706;10.780;2023-06-22T00:55:41;25.70;96.70
45115;DHT22;30877;43.706;10.780;2023-06-22T00:58:13;25.70;96.70
45115;DHT22;30877;43.706;10.780;2023-06-22T01:00:41;25.50;96.70
45115;DHT22;30877;43.706;10.780;2023-06-22T01:03:10;25.40;96.70
45115;DHT22;30877;43.706;10.780;2023-06-22T01:05:39;25.40;96.70
45115;DHT22;30877;43.706;10.780;2023-06-22T01:08:17;25.40;96.70
45115;DHT22;30877;43.706;10.780;2023-06-22T01:10:51;25.30;96.70
45115;DHT22;30877;43.706;10.780;2023-06-22T01:13:29;25.30;96.70
45115;DHT22;30877;43.706;10.780;2023-06-22T01:16:05;25.30;96.70
45115;DHT22;30877;43.706;10.780;2023-06-22T01:18:36;25.30;96.70
45115;DHT22;30877;43.706;10.780;2023-06-22T01:21:11;25.40;96.70
45115;DHT22;30877;43.706;10.780;2023-06-22T01:23:53;25.20;96.70
45115;DHT22;30877;43.706;10.780;2023-06-22T01:26:43;25.20;96.70
45115;DHT22;30877;43.706;10.780;2023-06-22T01:29:18;25.10;96.70
45115;DHT22;30877;43.706;10.780;2023-06-22T01:31:50;25.20;96.70
45115;DHT22;30877;43.706;10.780;2023-06-22T01:34:19;25.20;96.70
45115;DHT22;30877;43.706;10.780;2023-06-22T01:36:48;25.30;96.70
45115;DHT22;30877;43.706;10.780;2023-06-22T01:39:18;25.20;96.70
45115;DHT22;30877;43.706;10.780;2023-06-22T01:41:48;25.20;96.70
45115;DHT22;30877;43.706;10.780;2023-06-22T01:44:18;25.20;96.70
45115;DHT22;30877;43.706;10.780;2023-06-22T01:46:48;25.10;96.70
45115;DHT22;30877;43.706;10.780;2023-06-22T01:49:19;25.10;96.70
45115;DHT22;30877;43.706;10.780;2023-06-22T01:51:48;25.10;96.70
45115;DHT22;30877;43.706;10.780;2023-06-22T01:54:16;25.10;96.70
45115;DHT22;30877;43.706;10.780;2023-06-22T01:56:46;25.10;96.70
45115;DHT22;30877;43.706;10.780;2023-06-22T01:59:20;25.10;96.70
45115;DHT22;30877;43.706;10.780;2023-06-22T02:01:52;25.10;96.70
45115;DHT22;30877;43.706;10.780;2023-06-22T02:04:26;25.10;96.70
45115;DHT22;30877;43.706;10.780;2023-06-22T02:06:58;25.20;96.70
45115;DHT22;30877;43.706;10.780;2023-06-22T02:09:29;25.10;96.70
45115;DHT22;30877;43.706;10.780;2023-06-22T02:12:01;24.90;96.70
45115;DHT22;30877;43.706;10.780;2023-06-22T02:14:31;24.70;96.70
45115;DHT22;30877;43.706;10.780;2023-06-22T02:17:01;24.80;96.70
45115;DHT22;30877;43.706;10.780;2023-06-22T02:19:30;24.80;96.70
45115;DHT22;30877;43.706;10.780;2023-06-22T02:22:01;24.80;96.70
45115;DHT22;30877;43.706;10.780;2023-06-22T02:24:29;24.80;96.70
45115;DHT22;30877;43.706;10.780;2023-06-22T02:27:00;24.70;96.70
45115;DHT22;30877;43.706;10.780;2023-06-22T02:29:28;24.70;96.70
45115;DHT22;30877;43.706;10.780;2023-06-22T02:31:58;24.70;96.70
45115;DHT22;30877;43.706;10.780;2023-06-22T02:34:26;24.70;96.70
45115;DHT22;30877;43.706;10.780;2023-06-22T02:36:54;24.70;96.70
45115;DHT22;30877;43.706;10.780;2023-06-22T02:39:23;24.60;96.70
45115;DHT22;30877;43.706;10.780;2023-06-22T02:41:53;24.70;96.70
45115;DHT22;30877;43.706;10.780;2023-06-22T02:44:22;24.70;96.70
45115;DHT22;30877;43.706;10.780;2023-06-22T02:46:50;24.70;96.70
45115;DHT22;30877;43.706;10.780;2023-06-22T02:49:20;24.80;96.70
45115;DHT22;30877;43.706;10.780;2023-06-22T02:51:49;24.80;96.70
45115;DHT22;30877;43.706;10.780;2023-06-22T02:54:20;24.80;96.70
45115;DHT22;30877;43.706;10.780;2023-06-22T02:56:53;24.80;96.70
45115;DHT22;30877;43.706;10.780;2023-06-22T02:59:31;24.70;96.70
45115;DHT22;30877;43.706;10.780;2023-06-22T03:02:09;24.60;96.70
45115;DHT22;30877;43.706;10.780;2023-06-22T03:04:41;24.50;96.70
45115;DHT22;30877;43.706;10.780;2023-06-22T03:07:10;24.60;96.70
45115;DHT22;30877;43.706;10.780;2023-06-22T03:09:37;24.60;96.70
45115;DHT22;30877;43.706;10.780;2023-06-22T03:12:07;24.60;96.70
45115;DHT22;30877;43.706;10.780;2023-06-22T03:14:42;24.50;96.70
45115;DHT22;30877;43.706;10.780;2023-06-22T03:17:10;24.40;96.70
45115;DHT22;30877;43.706;10.780;2023-06-22T03:19:41;24.50;96.70
45115;DHT22;30877;43.706;10.780;2023-06-22T03:22:09;24.50;96.70
45115;DHT22;30877;43.706;10.780;2023-06-22T03:24:40;24.50;96.70
45115;DHT22;30877;43.706;10.780;2023-06-22T03:27:08;24.40;96.70
45115;DHT22;30877;43.706;10.780;2023-06-22T03:29:36;24.30;96.70
45115;DHT22;30877;43.706;10.780;2023-06-22T03:32:05;24.30;96.70
45115;DHT22;30877;43.706;10.780;2023-06-22T03:34:33;24.30;96.70
45115;DHT22;30877;43.706;10.780;2023-06-22T03:37:05;24.20;96.70
45115;DHT22;30877;43.706;10.780;2023-06-22T03:39:33;24.20;96.70
45115;DHT22;30877;43.706;10.780;2023-06-22T03:42:01;24.20;96.70
45115;DHT22;30877;43.706;10.780;2023-06-22T03:44:28;24.20;96.70
45115;DHT22;30877;43.706;10.780;2023-06-22T03:46:56;24.10;96.70
45115;DHT22;30877;43.706;10.780;2023-06-22T03:49:24;24.10;96.70
45115;DHT22;30877;43.706;10.780;2023-06-22T03:51:52;24.10;96.70
45115;DHT22;30877;43.706;10.780;2023-06-22T03:54:22;24.00;96.70
45115;DHT22;30877;43.706;10.780;2023-06-22T03:56:50;24.00;96.70
45115;DHT22;30877;43.706;10.780;2023-06-22T03:59:18;23.90;96.70
45115;DHT22;30877;43.706;10.780;2023-06-22T04:01:45;24.00;96.70
45115;DHT22;30877;43.706;10.780;2023-06-22T04:04:14;24.00;96.70
45115;DHT22;30877;43.706;10.780;2023-06-22T04:06:42;23.90;96.70
45115;DHT22;30877;43.706;10.780;2023-06-22T04:09:10;23.70;96.70
45115;DHT22;30877;43.706;10.780;2023-06-22T04:11:40;23.60;96.70
45115;DHT22;30877;43.706;10.780;2023-06-22T04:14:08;23.70;96.70
45115;DHT22;30877;43.706;10.780;2023-06-22T04:16:36;23.70;96.70
45115;DHT22;30877;43.706;10.780;2023-06-22T04:19:04;23.70;96.70
45115;DHT22;30877;43.706;10.780;2023-06-22T04:21:37;23.80;96.70
45115;DHT22;30877;43.706;10.780;2023-06-22T04:24:05;23.90;96.70
45115;DHT22;30877;43.706;10.780;2023-06-22T04:26:33;23.70;96.70
45115;DHT22;30877;43.706;10.780;2023-06-22T04:29:05;23.80;96.70
45115;DHT22;30877;43.706;10.780;2023-06-22T04:31:33;23.80;96.70
45115;DHT22;30877;43.706;10.780;2023-06-22T04:34:05;23.70;96.70
45115;DHT22;30877;43.706;10.780;2023-06-22T04:36:37;23.80;96.70
45115;DHT22;30877;43.706;10.780;2023-06-22T04:39:06;23.80;96.70
45115;DHT22;30877;43.706;10.780;2023-06-22T04:41:34;23.70;96.70
45115;DHT22;30877;43.706;10.780;2023-06-22T04:44:14;23.70;96.70
45115;DHT22;30877;43.706;10.780;2023-06-22T04:46:52;23.80;96.70
45115;DHT22;30877;43.706;10.780;2023-06-22T04:49:28;23.90;96.70
45115;DHT22;30877;43.706;10.780;2023-06-22T04:52:04;24.00;96.70
45115;DHT22;30877;43.706;10.780;2023-06-22T04:54:33;24.10;96.70
45115;DHT22;30877;43.706;10.780;2023-06-22T04:57:02;24.10;96.70
45115;DHT22;30877;43.706;10.780;2023-06-22T04:59:32;24.10;96.70
45115;DHT22;30877;43.706;10.780;2023-06-22T05:02:01;24.10;96.70
45115;DHT22;30877;43.706;10.780;2023-06-22T05:04:30;24.20;96.70
45115;DHT22;30877;43.706;10.780;2023-06-22T05:07:04;24.20;96.70
45115;DHT22;30877;43.706;10.780;2023-06-22T05:09:32;24.10;96.70
45115;DHT22;30877;43.706;10.780;2023-06-22T05:12:02;24.10;96.70
45115;DHT22;30877;43.706;10.780;2023-06-22T05:14:36;24.30;96.70
45115;DHT22;30877;43.706;10.780;2023-06-22T05:17:04;24.30;96.70
45115;DHT22;30877;43.706;10.780;2023-06-22T05:19:42;24.30;96.70
45115;DHT22;30877;43.706;10.780;2023-06-22T05:22:12;24.40;96.70
45115;DHT22;30877;43.706;10.780;2023-06-22T05:24:41;24.40;96.70
45115;DHT22;30877;43.706;10.780;2023-06-22T05:27:09;24.50;96.70
45115;DHT22;30877;43.706;10.780;2023-06-22T05:29:38;24.40;96.70
45115;DHT22;30877;43.706;10.780;2023-06-22T05:32:07;24.50;96.70
45115;DHT22;30877;43.706;10.780;2023-06-22T05:34:35;24.50;96.70
45115;DHT22;30877;43.706;10.780;2023-06-22T05:37:03;24.60;96.70
45115;DHT22;30877;43.706;10.780;2023-06-22T05:39:31;24.60;96.70
45115;DHT22;30877;43.706;10.780;2023-06-22T05:42:00;24.60;96.70
45115;DHT22;30877;43.706;10.780;2023-06-22T05:44:29;24.70;96.70
45115;DHT22;30877;43.706;10.780;2023-06-22T05:46:58;24.60;96.70
45115;DHT22;30877;43.706;10.780;2023-06-22T05:49:26;24.60;96.70
45115;DHT22;30877;43.706;10.780;2023-06-22T05:52:00;24.70;96.70
45115;DHT22;30877;43.706;10.780;2023-06-22T05:54:28;24.70;96.70
45115;DHT22;30877;43.706;10.780;2023-06-22T05:56:56;24.80;96.70
45115;DHT22;30877;43.706;10.780;2023-06-22T05:59:24;24.80;96.70
45115;DHT22;30877;43.706;10.780;2023-06-22T06:01:52;24.80;96.70
45115;DHT22;30877;43.706;10.780;2023-06-22T06:04:22;24.90;96.70
45115;DHT22;30877;43.706;10.780;2023-06-22T06:06:49;24.90;96.70
45115;DHT22;30877;43.706;10.780;2023-06-22T06:09:17;24.90;96.70
45115;DHT22;30877;43.706;10.780;2023-06-22T06:11:45;24.90;96.70
45115;DHT22;30877;43.706;10.780;2023-06-22T06:14:13;24.90;96.70
45115;DHT22;30877;43.706;10.780;2023-06-22T06:16:41;24.80;96.70
45115;DHT22;30877;43.706;10.780;2023-06-22T06:19:09;24.80;96.70
45115;DHT22;30877;43.706;10.780;2023-06-22T06:21:38;24.80;96.70
45115;DHT22;30877;43.706;10.780;2023-06-22T06:24:06;24.80;96.70
45115;DHT22;30877;43.706;10.780;2023-06-22T06:26:34;24.90;96.70
45115;DHT22;30877;43.706;10.780;2023-06-22T06:29:03;24.90;96.70
45115;DHT22;30877;43.706;10.780;2023-06-22T06:31:31;24.90;96.70
45115;DHT22;30877;43.706;10.780;2023-06-22T06:33:59;25.00;96.70
45115;DHT22;30877;43.706;10.780;2023-06-22T06:36:27;25.10;96.70
45115;DHT22;30877;43.706;10.780;2023-06-22T06:38:57;25.10;96.70
45115;DHT22;30877;43.706;10.780;2023-06-22T06:41:26;25.20;96.70
45115;DHT22;30877;43.706;10.780;2023-06-22T06:43:54;25.20;96.70
45115;DHT22;30877;43.706;10.780;2023-06-22T06:46:22;25.30;96.70
45115;DHT22;30877;43.706;10.780;2023-06-22T06:48:54;25.40;96.70
45115;DHT22;30877;43.706;10.780;2023-06-22T06:51:28;25.50;96.70
45115;DHT22;30877;43.706;10.780;2023-06-22T06:53:57;25.60;96.70
45115;DHT22;30877;43.706;10.780;2023-06-22T06:56:28;25.70;96.70
45115;DHT22;30877;43.706;10.780;2023-06-22T06:59:00;25.80;96.70
45115;DHT22;30877;43.706;10.780;2023-06-22T07:01:30;25.90;96.70
45115;DHT22;30877;43.706;10.780;2023-06-22T07:04:02;26.10;96.70
45115;DHT22;30877;43.706;10.780;2023-06-22T07:06:30;26.20;96.70
45115;DHT22;30877;43.706;10.780;2023-06-22T07:09:01;26.30;96.70
45115;DHT22;30877;43.706;10.780;2023-06-22T07:11:31;26.40;96.70
45115;DHT22;30877;43.706;10.780;2023-06-22T07:13:59;26.50;96.70
45115;DHT22;30877;43.706;10.780;2023-06-22T07:16:30;26.60;96.70
45115;DHT22;30877;43.706;10.780;2023-06-22T07:18:59;26.70;96.70
45115;DHT22;30877;43.706;10.780;2023-06-22T07:21:28;26.80;96.70
45115;DHT22;30877;43.706;10.780;2023-06-22T07:23:56;26.90;96.70
45115;DHT22;30877;43.706;10.780;2023-06-22T07:26:26;27.00;96.70
45115;DHT22;30877;43.706;10.780;2023-06-22T07:28:54;27.10;96.70
45115;DHT22;30877;43.706;10.780;2023-06-22T07:31:24;27.20;96.70
45115;DHT22;30877;43.706;10.780;2023-06-22T07:33:52;27.20;96.70
45115;DHT22;30877;43.706;10.780;2023-06-22T07:36:20;27.30;96.70
45115;DHT22;30877;43.706;10.780;2023-06-22T07:38:48;27.40;96.70
45115;DHT22;30877;43.706;10.780;2023-06-22T07:41:17;27.50;96.70
45115;DHT22;30877;43.706;10.780;2023-06-22T07:43:46;27.60;96.70
45115;DHT22;30877;43.706;10.780;2023-06-22T07:46:15;27.70;96.70
45115;DHT22;30877;43.706;10.780;2023-06-22T07:48:43;27.80;96.70
45115;DHT22;30877;43.706;10.780;2023-06-22T07:51:12;27.80;96.70
45115;DHT22;30877;43.706;10.780;2023-06-22T07:53:41;27.90;96.70
45115;DHT22;30877;43.706;10.780;2023-06-22T07:56:10;28.00;96.70
45115;DHT22;30877;43.706;10.780;2023-06-22T07:58:39;28.10;96.70
45115;DHT22;30877;43.706;10.780;2023-06-22T08:01:09;28.10;96.70
45115;DHT22;30877;43.706;10.780;2023-06-22T08:03:37;28.20;96.70
45115;DHT22;30877;43.706;10.780;2023-06-22T08:06:05;28.40;96.70
45115;DHT22;30877;43.706;10.780;2023-06-22T08:08:36;28.40;96.70
45115;DHT22;30877;43.706;10.780;2023-06-22T08:11:05;28.40;96.70
45115;DHT22;30877;43.706;10.780;2023-06-22T08:13:33;28.40;96.70
45115;DHT22;30877;43.706;10.780;2023-06-22T08:16:01;28.40;96.70
45115;DHT22;30877;43.706;10.780;2023-06-22T08:18:31;28.50;96.70
45115;DHT22;30877;43.706;10.780;2023-06-22T08:20:59;28.50;96.70
45115;DHT22;30877;43.706;10.780;2023-06-22T08:23:29;28.60;96.70
45115;DHT22;30877;43.706;10.780;2023-06-22T08:25:58;28.50;96.70
45115;DHT22;30877;43.706;10.780;2023-06-22T08:28:29;28.60;96.70
45115;DHT22;30877;43.706;10.780;2023-06-22T08:30:58;28.80;96.70
45115;DHT22;30877;43.706;10.780;2023-06-22T08:33:26;28.90;96.70
45115;DHT22;30877;43.706;10.780;2023-06-22T08:35:58;28.90;96.70
45115;DHT22;30877;43.706;10.780;2023-06-22T08:38:28;29.00;96.70
45115;DHT22;30877;43.706;10.780;2023-06-22T08:40:57;29.10;96.70
45115;DHT22;30877;43.706;10.780;2023-06-22T08:43:25;29.10;96.70
45115;DHT22;30877;43.706;10.780;2023-06-22T08:45:53;29.20;96.70
45115;DHT22;30877;43.706;10.780;2023-06-22T08:48:21;29.20;96.70
45115;DHT22;30877;43.706;10.780;2023-06-22T08:50:49;29.20;96.70
45115;DHT22;30877;43.706;10.780;2023-06-22T08:53:19;29.40;96.70
45115;DHT22;30877;43.706;10.780;2023-06-22T08:55:47;29.50;96.70
45115;DHT22;30877;43.706;10.780;2023-06-22T08:58:16;29.60;96.70
45115;DHT22;30877;43.706;10.780;2023-06-22T09:00:44;29.70;96.70
45115;DHT22;30877;43.706;10.780;2023-06-22T09:03:12;29.70;96.70
45115;DHT22;30877;43.706;10.780;2023-06-22T09:05:40;29.80;96.70
45115;DHT22;30877;43.706;10.780;2023-06-22T09:08:09;29.90;96.70
45115;DHT22;30877;43.706;10.780;2023-06-22T09:10:38;30.00;96.70
45115;DHT22;30877;43.706;10.780;2023-06-22T09:13:07;30.10;96.70
45115;DHT22;30877;43.706;10.780;2023-06-22T09:15:35;30.10;96.70
45115;DHT22;30877;43.706;10.780;2023-06-22T09:18:03;30.30;96.70
45115;DHT22;30877;43.706;10.780;2023-06-22T09:20:32;30.40;96.70
45115;DHT22;30877;43.706;10.780;2023-06-22T09:23:00;30.40;96.70
45115;DHT22;30877;43.706;10.780;2023-06-22T09:25:28;30.60;96.70
45115;DHT22;30877;43.706;10.780;2023-06-22T09:27:58;30.70;96.70
45115;DHT22;30877;43.706;10.780;2023-06-22T09:30:27;30.90;96.70
45115;DHT22;30877;43.706;10.780;2023-06-22T09:32:55;31.00;96.70
45115;DHT22;30877;43.706;10.780;2023-06-22T09:35:24;31.10;96.70
45115;DHT22;30877;43.706;10.780;2023-06-22T09:37:52;31.20;96.70
45115;DHT22;30877;43.706;10.780;2023-06-22T09:40:22;31.30;96.70
45115;DHT22;30877;43.706;10.780;2023-06-22T09:42:50;31.30;96.70
45115;DHT22;30877;43.706;10.780;2023-06-22T09:45:20;31.30;96.70
45115;DHT22;30877;43.706;10.780;2023-06-22T09:47:48;31.40;96.70
45115;DHT22;30877;43.706;10.780;2023-06-22T09:50:17;31.50;96.70
45115;DHT22;30877;43.706;10.780;2023-06-22T09:52:45;31.40;96.70
45115;DHT22;30877;43.706;10.780;2023-06-22T09:55:18;31.40;96.70
45115;DHT22;30877;43.706;10.780;2023-06-22T09:58:15;31.60;96.70
45115;DHT22;30877;43.706;10.780;2023-06-22T10:00:45;31.70;96.70
45115;DHT22;30877;43.706;10.780;2023-06-22T10:03:13;31.70;96.70
45115;DHT22;30877;43.706;10.780;2023-06-22T10:05:42;31.80;96.70
45115;DHT22;30877;43.706;10.780;2023-06-22T10:08:13;31.90;96.70
45115;DHT22;30877;43.706;10.780;2023-06-22T10:10:41;31.90;96.70
45115;DHT22;30877;43.706;10.780;2023-06-22T10:13:10;32.00;96.70
45115;DHT22;30877;43.706;10.780;2023-06-22T10:15:39;32.10;96.70
45115;DHT22;30877;43.706;10.780;2023-06-22T10:18:09;32.10;96.70
45115;DHT22;30877;43.706;10.780;2023-06-22T10:20:37;32.20;96.70
45115;DHT22;30877;43.706;10.780;2023-06-22T10:23:05;32.40;96.70
45115;DHT22;30877;43.706;10.780;2023-06-22T10:25:34;32.50;96.70
45115;DHT22;30877;43.706;10.780;2023-06-22T10:28:02;32.70;96.70
45115;DHT22;30877;43.706;10.780;2023-06-22T10:30:30;32.90;96.70
45115;DHT22;30877;43.706;10.780;2023-06-22T10:32:58;32.80;96.70
45115;DHT22;30877;43.706;10.780;2023-06-22T10:35:28;32.80;96.70
45115;DHT22;30877;43.706;10.780;2023-06-22T10:37:57;33.00;96.70
45115;DHT22;30877;43.706;10.780;2023-06-22T10:40:25;33.20;96.70
45115;DHT22;30877;43.706;10.780;2023-06-22T10:42:53;33.40;96.70
45115;DHT22;30877;43.706;10.780;2023-06-22T10:45:21;33.50;96.70
45115;DHT22;30877;43.706;10.780;2023-06-22T10:47:50;33.50;96.70
45115;DHT22;30877;43.706;10.780;2023-06-22T10:50:18;33.70;96.70
45115;DHT22;30877;43.706;10.780;2023-06-22T10:52:49;33.70;96.70
45115;DHT22;30877;43.706;10.780;2023-06-22T10:55:18;34.00;96.70
45115;DHT22;30877;43.706;10.780;2023-06-22T10:57:46;34.10;96.70
45115;DHT22;30877;43.706;10.780;2023-06-22T11:00:15;34.00;96.70
45115;DHT22;30877;43.706;10.780;2023-06-22T11:02:43;34.10;96.70
45115;DHT22;30877;43.706;10.780;2023-06-22T11:05:12;34.10;96.70
45115;DHT22;30877;43.706;10.780;2023-06-22T11:07:42;34.20;96.70
45115;DHT22;30877;43.706;10.780;2023-06-22T11:10:19;34.40;96.70
45115;DHT22;30877;43.706;10.780;2023-06-22T11:13:07;34.40;96.70
45115;DHT22;30877;43.706;10.780;2023-06-22T11:15:39;34.30;96.70
45115;DHT22;30877;43.706;10.780;2023-06-22T11:18:07;34.60;96.70
45115;DHT22;30877;43.706;10.780;2023-06-22T11:20:36;34.50;96.70
45115;DHT22;30877;43.706;10.780;2023-06-22T11:23:06;34.20;96.70
45115;DHT22;30877;43.706;10.780;2023-06-22T11:25:36;34.40;96.70
45115;DHT22;30877;43.706;10.780;2023-06-22T11:28:06;34.70;96.70
45115;DHT22;30877;43.706;10.780;2023-06-22T11:30:34;34.90;96.70
45115;DHT22;30877;43.706;10.780;2023-06-22T11:33:02;34.80;96.70
45115;DHT22;30877;43.706;10.780;2023-06-22T11:35:30;35.10;96.70
45115;DHT22;30877;43.706;10.780;2023-06-22T11:37:58;35.30;96.70
45115;DHT22;30877;43.706;10.780;2023-06-22T11:40:27;35.50;96.70
45115;DHT22;30877;43.706;10.780;2023-06-22T11:42:57;35.60;96.70
45115;DHT22;30877;43.706;10.780;2023-06-22T11:45:25;35.60;96.70
45115;DHT22;30877;43.706;10.780;2023-06-22T11:47:53;35.60;96.70
45115;DHT22;30877;43.706;10.780;2023-06-22T11:50:22;35.70;96.70
45115;DHT22;30877;43.706;10.780;2023-06-22T11:52:50;35.70;96.70
45115;DHT22;30877;43.706;10.780;2023-06-22T11:55:20;35.50;96.70
45115;DHT22;30877;43.706;10.780;2023-06-22T11:57:57;35.60;96.70
45115;DHT22;30877;43.706;10.780;2023-06-22T12:00:27;35.80;96.70
45115;DHT22;30877;43.706;10.780;2023-06-22T12:02:57;36.00;96.70
45115;DHT22;30877;43.706;10.780;2023-06-22T12:05:28;36.00;96.70
45115;DHT22;30877;43.706;10.780;2023-06-22T12:07:56;36.10;96.70
45115;DHT22;30877;43.706;10.780;2023-06-22T12:10:25;36.30;96.70
45115;DHT22;30877;43.706;10.780;2023-06-22T12:12:54;36.40;96.70
45115;DHT22;30877;43.706;10.780;2023-06-22T12:15:23;36.30;96.70
45115;DHT22;30877;43.706;10.780;2023-06-22T12:17:52;36.10;96.70
45115;DHT22;30877;43.706;10.780;2023-06-22T12:20:20;35.90;96.70
45115;DHT22;30877;43.706;10.780;2023-06-22T12:22:50;36.10;96.70
45115;DHT22;30877;43.706;10.780;2023-06-22T12:25:19;36.30;96.70
45115;DHT22;30877;43.706;10.780;2023-06-22T12:27:47;36.50;96.70
45115;DHT22;30877;43.706;10.780;2023-06-22T12:30:16;36.60;96.70
45115;DHT22;30877;43.706;10.780;2023-06-22T12:32:46;36.50;96.70
45115;DHT22;30877;43.706;10.780;2023-06-22T12:35:14;36.30;96.70
45115;DHT22;30877;43.706;10.780;2023-06-22T12:37:42;36.20;96.70
45115;DHT22;30877;43.706;10.780;2023-06-22T12:40:11;36.40;96.70
45115;DHT22;30877;43.706;10.780;2023-06-22T12:42:40;36.50;96.70
45115;DHT22;30877;43.706;10.780;2023-06-22T12:45:10;36.50;96.70
45115;DHT22;30877;43.706;10.780;2023-06-22T12:47:38;36.60;96.70
45115;DHT22;30877;43.706;10.780;2023-06-22T12:50:08;36.60;96.70
45115;DHT22;30877;43.706;10.780;2023-06-22T12:52:39;36.90;96.70
45115;DHT22;30877;43.706;10.780;2023-06-22T12:55:08;36.70;96.70
45115;DHT22;30877;43.706;10.780;2023-06-22T12:57:36;36.60;96.70
45115;DHT22;30877;43.706;10.780;2023-06-22T13:00:08;37.00;96.70
45115;DHT22;30877;43.706;10.780;2023-06-22T13:02:41;37.30;96.70
45115;DHT22;30877;43.706;10.780;2023-06-22T13:05:11;37.30;96.70
45115;DHT22;30877;43.706;10.780;2023-06-22T13:07:40;37.50;96.70
45115;DHT22;30877;43.706;10.780;2023-06-22T13:10:10;37.80;96.70
45115;DHT22;30877;43.706;10.780;2023-06-22T13:12:38;37.50;96.70
45115;DHT22;30877;43.706;10.780;2023-06-22T13:15:07;37.60;96.70
45115;DHT22;30877;43.706;10.780;2023-06-22T13:17:35;37.70;96.70
45115;DHT22;30877;43.706;10.780;2023-06-22T13:20:04;37.80;96.70
45115;DHT22;30877;43.706;10.780;2023-06-22T13:22:35;38.20;96.70
45115;DHT22;30877;43.706;10.780;2023-06-22T13:25:10;38.70;96.70
45115;DHT22;30877;43.706;10.780;2023-06-22T13:27:40;38.80;96.70
45115;DHT22;30877;43.706;10.780;2023-06-22T13:30:09;38.70;94.90
45115;DHT22;30877;43.706;10.780;2023-06-22T13:32:41;38.80;92.00
45115;DHT22;30877;43.706;10.780;2023-06-22T13:35:12;38.50;90.50
45115;DHT22;30877;43.706;10.780;2023-06-22T13:37:41;38.10;90.40
45115;DHT22;30877;43.706;10.780;2023-06-22T13:40:10;38.20;90.40
45115;DHT22;30877;43.706;10.780;2023-06-22T13:42:38;38.30;88.80
45115;DHT22;30877;43.706;10.780;2023-06-22T13:45:08;38.20;91.00
45115;DHT22;30877;43.706;10.780;2023-06-22T13:47:36;38.00;91.00
45115;DHT22;30877;43.706;10.780;2023-06-22T13:50:05;37.60;91.70
45115;DHT22;30877;43.706;10.780;2023-06-22T13:52:33;37.40;93.10
45115;DHT22;30877;43.706;10.780;2023-06-22T13:55:03;37.10;93.20
45115;DHT22;30877;43.706;10.780;2023-06-22T13:57:33;36.80;95.20
45115;DHT22;30877;43.706;10.780;2023-06-22T14:00:01;36.70;94.90
45115;DHT22;30877;43.706;10.780;2023-06-22T14:02:37;36.70;95.70
45115;DHT22;30877;43.706;10.780;2023-06-22T14:05:06;36.60;95.50
45115;DHT22;30877;43.706;10.780;2023-06-22T14:07:41;36.60;94.70
45115;DHT22;30877;43.706;10.780;2023-06-22T14:10:20;36.50;96.10
45115;DHT22;30877;43.706;10.780;2023-06-22T14:13:19;36.40;95.40
45115;DHT22;30877;43.706;10.780;2023-06-22T14:15:47;36.30;95.20
45115;DHT22;30877;43.706;10.780;2023-06-22T14:18:16;36.20;95.10
45115;DHT22;30877;43.706;10.780;2023-06-22T14:20:44;36.20;96.60
45115;DHT22;30877;43.706;10.780;2023-06-22T14:23:12;36.20;95.30
45115;DHT22;30877;43.706;10.780;2023-06-22T14:25:41;36.10;95.50
45115;DHT22;30877;43.706;10.780;2023-06-22T14:28:09;36.10;96.30
45115;DHT22;30877;43.706;10.780;2023-06-22T14:30:37;36.20;96.20
45115;DHT22;30877;43.706;10.780;2023-06-22T14:33:05;36.30;96.70
45115;DHT22;30877;43.706;10.780;2023-06-22T14:35:33;36.40;96.70
45115;DHT22;30877;43.706;10.780;2023-06-22T14:38:01;36.80;96.50
45115;DHT22;30877;43.706;10.780;2023-06-22T14:40:29;37.00;96.10
45115;DHT22;30877;43.706;10.780;2023-06-22T14:43:04;37.40;96.00
45115;DHT22;30877;43.706;10.780;2023-06-22T14:45:32;38.10;96.70
45115;DHT22;30877;43.706;10.780;2023-06-22T14:48:00;38.10;96.70
45115;DHT22;30877;43.706;10.780;2023-06-22T14:50:28;37.70;96.70
45115;DHT22;30877;43.706;10.780;2023-06-22T14:52:56;37.10;96.70
45115;DHT22;30877;43.706;10.780;2023-06-22T14:55:24;36.80;96.70
45115;DHT22;30877;43.706;10.780;2023-06-22T14:57:52;36.50;96.70
45115;DHT22;30877;43.706;10.780;2023-06-22T15:00:24;35.90;96.70
45115;DHT22;30877;43.706;10.780;2023-06-22T15:02:53;35.60;96.70
45115;DHT22;30877;43.706;10.780;2023-06-22T15:05:22;35.30;96.70
45115;DHT22;30877;43.706;10.780;2023-06-22T15:07:53;35.60;96.70
45115;DHT22;30877;43.706;10.780;2023-06-22T15:10:21;35.50;96.70
45115;DHT22;30877;43.706;10.780;2023-06-22T15:12:49;35.30;96.70
45115;DHT22;30877;43.706;10.780;2023-06-22T15:15:17;35.80;96.70
45115;DHT22;30877;43.706;10.780;2023-06-22T15:17:46;36.90;96.70
45115;DHT22;30877;43.706;10.780;2023-06-22T15:20:14;37.50;96.70
45115;DHT22;30877;43.706;10.780;2023-06-22T15:22:42;38.00;96.70
45115;DHT22;30877;43.706;10.780;2023-06-22T15:25:10;38.10;96.60
45115;DHT22;30877;43.706;10.780;2023-06-22T15:27:38;37.20;96.70
45115;DHT22;30877;43.706;10.780;2023-06-22T15:30:07;36.60;96.70
45115;DHT22;30877;43.706;10.780;2023-06-22T15:32:35;36.30;96.70